createdAt,value
2023-05-22T00:02:10.595Z,15.25
2023-05-22T00:04:59.072Z,15.10
2023-05-22T00:07:46.235Z,17.52
2023-05-22T00:10:32.382Z,14.10
2023-05-22T00:13:18.014Z,14.20
2023-05-22T00:16:04.446Z,14.55
2023-05-22T00:18:50.458Z,16.88
2023-05-22T00:21:37.684Z,14.90
2023-05-22T00:24:26.597Z,13.90
2023-05-22T00:30:01.442Z,14.30
2023-05-22T00:32:47.952Z,12.40
2023-05-22T00:35:34.792Z,13.85
2023-05-22T00:38:35.602Z,15.70
2023-05-22T00:41:24.655Z,13.13
2023-05-22T00:44:11.949Z,14.70
2023-05-22T00:46:58.075Z,14.13
2023-05-22T00:49:46.642Z,14.73
2023-05-22T00:52:34.624Z,14.88
2023-05-22T00:55:20.684Z,14.07
2023-05-22T00:58:11.750Z,14.77
2023-05-22T01:00:57.647Z,17.63
2023-05-22T01:03:47.334Z,13.75
2023-05-22T01:06:34.473Z,14.55
2023-05-22T01:09:26.056Z,14.93
2023-05-22T01:12:46.877Z,12.70
2023-05-22T01:15:41.883Z,15.45
2023-05-22T01:19:08.895Z,16.02
2023-05-22T01:22:31.241Z,16.77
2023-05-22T01:25:36.102Z,15.07
2023-05-22T01:28:41.482Z,14.35
2023-05-22T01:31:31.933Z,17.98
2023-05-22T01:34:18.951Z,14.10
2023-05-22T01:37:06.383Z,15.75
2023-05-22T01:39:52.913Z,17.77
2023-05-22T01:42:41.756Z,15.73
2023-05-22T01:45:28.228Z,15.90
2023-05-22T01:48:14.050Z,15.63
2023-05-22T01:51:29.698Z,16.02
2023-05-22T01:54:33.324Z,15.43
2023-05-22T01:57:34.165Z,16.38
2023-05-22T02:00:22.716Z,17.23
2023-05-22T02:03:19.336Z,17.02
2023-05-22T02:06:14.090Z,18.48
2023-05-22T02:09:03.216Z,17.55
2023-05-22T02:14:36.862Z,13.48
2023-05-22T02:17:23.452Z,15.27
2023-05-22T02:20:15.749Z,15.85
2023-05-22T02:23:03.119Z,14.38
2023-05-22T02:25:49.509Z,17.20
2023-05-22T02:28:35.904Z,15.00
2023-05-22T02:31:22.216Z,14.52
2023-05-22T02:34:08.177Z,15.30
2023-05-22T02:36:54.483Z,15.20
2023-05-22T02:39:40.800Z,13.52
2023-05-22T02:42:28.808Z,14.18
2023-05-22T02:45:15.359Z,16.58
2023-05-22T02:48:03.962Z,12.60
2023-05-22T02:50:54.508Z,13.35
2023-05-22T02:53:41.802Z,13.13
2023-05-22T02:56:29.025Z,14.10
2023-05-22T02:59:14.737Z,15.77
2023-05-22T03:02:00.791Z,14.40
2023-05-22T03:04:46.996Z,13.82
2023-05-22T03:07:33.221Z,13.48
2023-05-22T03:10:21.839Z,13.68
2023-05-22T03:13:08.579Z,16.42
2023-05-22T03:15:54.916Z,13.55
2023-05-22T03:18:41.449Z,13.93
2023-05-22T03:21:27.733Z,13.90
2023-05-22T03:24:13.875Z,16.33
2023-05-22T03:27:01.251Z,14.93
2023-05-22T03:29:55.341Z,16.63
2023-05-22T03:32:45.257Z,15.68
2023-05-22T03:35:31.576Z,18.27
2023-05-22T03:38:17.446Z,15.50
2023-05-22T03:41:03.969Z,15.35
2023-05-22T03:43:50.225Z,15.68
2023-05-22T03:46:36.620Z,14.48
2023-05-22T03:49:27.542Z,16.63
2023-05-22T03:55:02.197Z,12.80
2023-05-22T03:57:48.382Z,14.02
2023-05-22T04:00:35.073Z,18.30
2023-05-22T04:06:11.083Z,15.55
2023-05-22T04:09:01.366Z,15.43
2023-05-22T04:11:50.194Z,15.82
2023-05-22T04:14:36.747Z,15.90
2023-05-22T04:17:23.426Z,14.80
2023-05-22T04:20:12.641Z,17.40
2023-05-22T04:25:45.816Z,15.07
2023-05-22T04:28:31.799Z,16.52
2023-05-22T04:31:20.676Z,15.95
2023-05-22T04:34:17.806Z,14.52
2023-05-22T04:37:06.646Z,14.43
2023-05-22T04:39:58.374Z,15.00
2023-05-22T04:42:44.965Z,19.05
2023-05-22T04:45:33.809Z,15.77
2023-05-22T04:48:26.329Z,16.73
2023-05-22T04:51:13.171Z,16.67
2023-05-22T04:54:01.837Z,16.70
2023-05-22T04:56:49.764Z,14.75
2023-05-22T04:59:38.299Z,17.05
2023-05-22T05:02:34.347Z,15.23
2023-05-22T05:05:20.777Z,15.45
2023-05-22T05:08:10.239Z,16.00
2023-05-22T05:10:56.461Z,16.48
2023-05-22T05:13:44.433Z,20.92
2023-05-22T05:16:30.796Z,16.80
2023-05-22T05:19:17.716Z,15.93
2023-05-22T05:22:07.232Z,18.75
2023-05-22T05:25:03.840Z,18.48
2023-05-22T05:27:49.693Z,18.77
2023-05-22T05:30:39.622Z,18.80
2023-05-22T05:33:44.454Z,18.95
2023-05-22T05:36:47.383Z,17.75
2023-05-22T05:39:34.403Z,15.18
2023-05-22T05:42:22.460Z,15.68
2023-05-22T05:45:09.928Z,19.27
2023-05-22T05:47:56.315Z,16.63
2023-05-22T05:50:43.542Z,15.80
2023-05-22T05:53:29.744Z,16.27
2023-05-22T05:56:17.723Z,17.67
2023-05-22T05:59:05.827Z,18.83
2023-05-22T06:02:12.022Z,15.93
2023-05-22T06:04:59.322Z,14.63
2023-05-22T06:07:48.458Z,17.42
2023-05-22T06:10:34.878Z,20.25
2023-05-22T06:13:31.130Z,21.75
2023-05-22T06:16:18.170Z,17.27
2023-05-22T06:19:04.852Z,18.35
2023-05-22T06:21:53.526Z,18.00
2023-05-22T06:27:32.168Z,18.38
2023-05-22T06:33:26.289Z,18.77
2023-05-22T06:36:13.218Z,16.48
2023-05-22T06:38:58.853Z,17.30
2023-05-22T06:42:05.141Z,15.45
2023-05-22T06:45:11.305Z,14.63
2023-05-22T06:48:06.568Z,18.52
2023-05-22T06:50:56.584Z,15.93
2023-05-22T06:53:42.615Z,16.17
2023-05-22T06:56:36.028Z,17.10
2023-05-22T06:59:25.469Z,15.80
2023-05-22T07:02:23.282Z,16.08
2023-05-22T07:05:31.757Z,14.75
2023-05-22T07:08:19.881Z,17.58
2023-05-22T07:11:07.706Z,15.15
2023-05-22T07:13:54.124Z,19.17
2023-05-22T07:16:41.859Z,19.73
2023-05-22T07:19:31.835Z,14.30
2023-05-22T07:22:22.085Z,18.63
2023-05-22T07:25:09.496Z,17.08
2023-05-22T07:27:59.370Z,15.73
2023-05-22T07:30:46.016Z,16.35
2023-05-22T07:33:32.092Z,18.55
2023-05-22T07:36:19.123Z,17.48
2023-05-22T07:39:05.503Z,17.02
2023-05-22T07:41:57.946Z,17.30
2023-05-22T07:44:48.443Z,18.52
2023-05-22T07:47:36.427Z,18.95
2023-05-22T07:50:23.129Z,17.92
2023-05-22T07:53:09.761Z,23.13
2023-05-22T07:56:00.708Z,21.52
2023-05-22T07:58:49.475Z,19.75
2023-05-22T08:01:44.465Z,20.58
2023-05-22T08:04:32.218Z,23.80
2023-05-22T08:10:16.489Z,19.30
2023-05-22T08:13:06.267Z,17.98
2023-05-22T08:16:00.317Z,17.73
2023-05-22T08:18:50.852Z,16.13
2023-05-22T08:21:37.917Z,17.13
2023-05-22T08:24:29.033Z,17.92
2023-05-22T08:27:20.290Z,17.80
2023-05-22T08:30:07.929Z,16.55
2023-05-22T08:33:16.496Z,16.73
2023-05-22T08:36:02.796Z,16.45
2023-05-22T08:38:49.906Z,14.95
2023-05-22T08:41:35.887Z,15.32
2023-05-22T08:44:22.182Z,15.32
2023-05-22T08:47:14.207Z,15.07
2023-05-22T08:50:00.890Z,16.02
2023-05-22T08:52:57.664Z,17.40
2023-05-22T08:55:44.643Z,16.88
2023-05-22T08:58:33.758Z,16.17
2023-05-22T09:01:23.844Z,16.58
2023-05-22T09:04:10.266Z,14.50
2023-05-22T09:06:56.014Z,17.63
2023-05-22T09:09:42.426Z,18.10
2023-05-22T09:12:28.439Z,16.77
2023-05-22T09:15:16.575Z,15.25
2023-05-22T09:18:07.042Z,16.05
2023-05-22T09:20:53.320Z,15.90
2023-05-22T09:23:39.718Z,17.08
2023-05-22T09:26:29.766Z,18.35
2023-05-22T09:29:15.815Z,18.35
2023-05-22T09:32:03.472Z,15.18
2023-05-22T09:34:51.374Z,18.17
2023-05-22T09:37:37.985Z,19.38
2023-05-22T09:40:29.400Z,16.95
2023-05-22T09:43:18.262Z,17.50
2023-05-22T09:46:04.637Z,16.75
2023-05-22T09:51:48.712Z,17.90
2023-05-22T09:54:36.264Z,16.40
2023-05-22T09:57:25.616Z,17.80
2023-05-22T10:00:18.656Z,16.23
2023-05-22T10:03:19.270Z,15.88
2023-05-22T10:06:06.570Z,17.35
2023-05-22T10:09:05.680Z,15.48
2023-05-22T10:11:59.463Z,18.00
2023-05-22T10:14:46.440Z,16.33
2023-05-22T10:17:32.586Z,17.05
2023-05-22T10:20:20.315Z,15.70
2023-05-22T10:23:08.101Z,16.92
2023-05-22T10:25:55.399Z,14.55
2023-05-22T10:28:52.056Z,15.77
2023-05-22T10:32:20.010Z,16.55
2023-05-22T10:35:18.095Z,15.40
2023-05-22T10:38:46.935Z,15.27
2023-05-22T10:41:33.961Z,14.13
2023-05-22T10:44:20.241Z,15.98
2023-05-22T10:47:11.897Z,16.55
2023-05-22T10:50:24.434Z,14.90
2023-05-22T10:53:23.221Z,14.43
2023-05-22T10:56:19.614Z,15.48
2023-05-22T10:59:08.322Z,15.88
2023-05-22T11:02:01.754Z,16.05
2023-05-22T11:04:51.180Z,15.13
2023-05-22T11:07:43.648Z,15.02
2023-05-22T11:10:53.812Z,16.35
2023-05-22T11:14:11.513Z,15.27
2023-05-22T11:17:01.890Z,15.77
2023-05-22T11:20:05.667Z,16.60
2023-05-22T11:23:08.699Z,18.00
2023-05-22T11:25:55.816Z,13.55
2023-05-22T11:28:42.190Z,16.77
2023-05-22T11:31:29.821Z,17.48
2023-05-22T11:34:17.072Z,16.40
2023-05-22T11:37:03.278Z,14.38
2023-05-22T11:39:58.014Z,14.07
2023-05-22T11:42:44.563Z,15.32
2023-05-22T11:45:31.957Z,12.60
2023-05-22T11:48:43.355Z,15.02
2023-05-22T11:51:35.227Z,14.18
2023-05-22T11:55:25.908Z,11.85
2023-05-22T11:58:16.617Z,11.10
2023-05-22T12:01:27.724Z,10.65
2023-05-22T12:04:16.479Z,10.93
2023-05-22T12:07:14.774Z,10.18
2023-05-22T12:10:08.632Z,15.00
2023-05-22T12:12:59.865Z,12.15
2023-05-22T12:15:57.962Z,10.57
2023-05-22T12:30:43.408Z,11.93
2023-05-22T12:35:52.811Z,11.07
2023-05-22T12:41:25.820Z,13.35
2023-05-22T12:43:27.590Z,12.70
2023-05-22T12:46:30.990Z,19.80
2023-05-22T12:49:28.957Z,13.70
2023-05-22T12:52:22.902Z,11.77
2023-05-22T12:55:11.823Z,14.65
2023-05-22T12:58:00.344Z,11.80
2023-05-22T13:00:50.024Z,14.00
2023-05-22T13:03:38.637Z,17.10
2023-05-22T13:06:43.475Z,12.65
2023-05-22T13:10:23.631Z,10.85
2023-05-22T13:16:13.560Z,9.70
2023-05-22T13:25:11.704Z,12.25
2023-05-22T13:28:03.307Z,13.10
2023-05-22T13:30:55.766Z,13.25
2023-05-22T13:33:49.036Z,9.90
2023-05-22T13:36:40.651Z,11.32
2023-05-22T13:39:35.159Z,11.57
2023-05-22T13:42:31.688Z,11.77
2023-05-22T13:45:22.545Z,11.63
2023-05-22T13:48:08.817Z,10.43
2023-05-22T13:51:11.116Z,11.98
2023-05-22T13:54:15.832Z,13.95
2023-05-22T13:57:16.587Z,11.60
2023-05-22T14:00:13.934Z,11.32
2023-05-22T14:03:09.483Z,11.95
2023-05-22T14:05:56.645Z,13.88
2023-05-22T14:08:42.781Z,10.85
2023-05-22T14:11:31.732Z,13.05
2023-05-22T14:17:11.664Z,13.82
2023-05-22T14:20:00.158Z,10.88
2023-05-22T14:23:23.572Z,11.82
2023-05-22T14:26:11.947Z,13.00
2023-05-22T14:29:01.214Z,12.93
2023-05-22T14:31:51.861Z,11.43
2023-05-22T14:34:38.108Z,11.57
2023-05-22T14:37:23.885Z,12.95
2023-05-22T14:40:14.748Z,12.50
2023-05-22T14:43:01.058Z,12.90
2023-05-22T14:45:46.990Z,12.43
2023-05-22T14:48:33.400Z,12.65
2023-05-22T14:51:22.210Z,11.70
2023-05-22T14:54:08.483Z,10.35
2023-05-22T14:56:55.023Z,11.48
2023-05-22T14:59:46.055Z,9.70
2023-05-22T15:02:37.403Z,10.35
2023-05-22T15:08:28.344Z,9.82
2023-05-22T15:20:47.707Z,11.57
2023-05-22T15:23:35.849Z,10.07
2023-05-22T15:26:21.958Z,8.52
2023-05-22T15:29:08.398Z,10.60
2023-05-22T15:31:54.920Z,11.70
2023-05-22T15:34:41.235Z,8.88
2023-05-22T15:37:31.576Z,10.95
2023-05-22T15:40:22.887Z,11.43
2023-05-22T15:43:09.265Z,10.23
2023-05-22T15:45:55.195Z,9.18
2023-05-22T15:48:42.115Z,10.50
2023-05-22T15:51:35.720Z,8.10
2023-05-22T15:54:24.234Z,11.15
2023-05-22T15:57:10.111Z,9.37
2023-05-22T15:59:58.836Z,11.45
2023-05-22T16:02:48.644Z,10.35
2023-05-22T16:05:45.239Z,11.45
2023-05-22T16:08:31.450Z,11.18
2023-05-22T16:11:18.061Z,10.00
2023-05-22T16:23:42.473Z,9.68
2023-05-22T16:31:39.398Z,11.60
2023-05-22T16:34:25.608Z,11.60
2023-05-22T16:37:15.535Z,11.15
2023-05-22T16:40:02.269Z,12.27
2023-05-22T16:42:49.193Z,12.75
2023-05-22T16:45:38.241Z,10.98
2023-05-22T16:48:24.651Z,11.60
2023-05-22T16:56:44.610Z,11.77
2023-05-22T17:00:36.925Z,15.93
2023-05-22T17:03:27.313Z,11.07
2023-05-22T17:06:13.756Z,10.57
2023-05-22T17:08:59.929Z,10.65
2023-05-22T17:11:46.698Z,11.40
2023-05-22T17:14:39.740Z,12.43
2023-05-22T17:17:27.343Z,15.10
2023-05-22T17:20:13.964Z,10.30
2023-05-22T17:23:03.548Z,10.63
2023-05-22T17:25:52.570Z,10.05
2023-05-22T17:28:52.447Z,10.65
2023-05-22T17:31:48.207Z,10.10
2023-05-22T17:34:47.656Z,10.73
2023-05-22T17:37:44.820Z,11.68
2023-05-22T17:40:43.908Z,11.35
2023-05-22T17:43:40.666Z,13.00
2023-05-22T17:46:29.268Z,12.48
2023-05-22T17:49:17.939Z,11.45
2023-05-22T17:52:07.879Z,11.52
2023-05-22T17:54:57.532Z,13.18
2023-05-22T17:57:43.748Z,8.77
2023-05-22T18:00:30.716Z,13.35
2023-05-22T18:03:38.924Z,13.20
2023-05-22T18:06:28.383Z,13.00
2023-05-22T18:09:21.290Z,12.57
2023-05-22T18:12:38.314Z,11.77
2023-05-22T18:15:31.560Z,12.30
2023-05-22T18:18:28.181Z,12.43
2023-05-22T18:21:16.526Z,13.73
2023-05-22T18:24:09.309Z,12.50
2023-05-22T19:45:59.773Z,11.38
2023-05-22T19:48:53.052Z,11.05
2023-05-22T19:52:48.657Z,11.68
2023-05-22T19:55:38.011Z,12.18
2023-05-22T19:58:30.098Z,11.40
2023-05-22T20:16:04.869Z,11.95
2023-05-22T20:19:33.680Z,11.23
2023-05-22T20:28:27.360Z,13.75
2023-05-22T20:31:41.812Z,12.63
2023-05-22T20:34:50.033Z,10.52
2023-05-22T20:38:00.932Z,11.77
2023-05-22T20:41:07.731Z,12.52
2023-05-22T20:44:08.655Z,13.25
2023-05-22T20:47:37.558Z,12.15
2023-05-22T20:51:26.310Z,11.15
2023-05-22T20:54:36.969Z,12.15
2023-05-22T20:57:34.560Z,15.13
2023-05-22T21:01:05.385Z,13.98
2023-05-22T21:03:56.563Z,13.68
2023-05-22T21:06:50.901Z,13.60
2023-05-22T21:09:40.970Z,13.82
2023-05-22T21:12:38.657Z,14.15
2023-05-22T21:15:48.764Z,16.15
2023-05-22T21:18:56.233Z,14.45
2023-05-22T21:22:03.503Z,14.75
2023-05-22T21:26:14.041Z,13.77
2023-05-22T21:29:24.870Z,13.63
2023-05-22T21:32:29.174Z,13.82
2023-05-22T21:35:58.802Z,12.30
2023-05-22T21:39:13.686Z,16.20
2023-05-22T21:42:14.522Z,13.27
2023-05-22T21:45:10.685Z,11.90
2023-05-22T21:48:16.139Z,14.25
2023-05-22T21:51:23.687Z,15.68
2023-05-22T21:54:29.688Z,14.52
2023-05-22T21:57:31.363Z,13.30
2023-05-22T22:00:42.550Z,12.60
2023-05-22T22:03:44.232Z,16.27
2023-05-22T22:06:37.616Z,15.13
2023-05-22T22:09:37.364Z,15.43
2023-05-22T22:12:27.933Z,14.80
2023-05-22T22:15:26.570Z,15.82
2023-05-22T22:18:28.697Z,13.63
2023-05-22T22:21:47.927Z,11.90
2023-05-22T22:25:14.767Z,16.42
2023-05-22T22:31:55.865Z,13.25
2023-05-22T22:34:53.709Z,13.50
2023-05-22T22:38:10.658Z,14.45
2023-05-22T22:42:10.259Z,14.38
2023-05-22T22:46:02.626Z,14.45
2023-05-22T22:49:31.986Z,15.05
2023-05-22T22:53:12.263Z,15.13
2023-05-22T22:56:29.990Z,15.75
2023-05-22T23:00:03.720Z,13.70
2023-05-22T23:03:20.953Z,13.80
2023-05-22T23:07:19.325Z,13.38
2023-05-22T23:10:29.113Z,15.75
2023-05-22T23:14:12.447Z,15.00
